Helmsley, United Kingdom
Current Conditions -  °F | °C
As of 5:50 AM on Friday 31 Oct 2014 (Local Time) from EGXZ Reporting Station
Haze Haze  
Wind Chill: 57°   Ceiling: 5000
Heat Index: 57°   Visibility: 2mi
Dew Point: 57°   Wind: 13mph
Humidity: 100%   Direction: 150°SSE
Pressure: 29.91"   Gusts: NA
Location:  54.25°N, 1.06°W
Report Text: EGXZ 310550Z AUTO 15011KT 3200 BR FEW035/// BKN050/// BKN180/// 14/14 Q1013
Loading
Personal Weather Stations






























Interactive Weather Map New forecast layout! Learn more

10-Day Weather Forecast

Advertisements
Track Severe Weather on mobile